KMIW/MIW METAR and TAF weather

Enter ICAO airport designator
Station Type Date Time Source
KMIW METAR 2021/07/27 20:53 UTC NOAA

KMIW 272053Z AUTO 22014KT 10SM CLR 32/22 A2999 RMK AO2 SLP147 T03220222 58020


Station Type Date Time Source
KMIW Decoded METAR 2021/07/27 20:53 UTC NOAA

MARSHALLTOWN MUNICIPAL AIRPORT , IA, United States (KMIW) 42-07N 92-55W 296M
Jul 27, 2021 - 04:53 PM EDT / 2021.07.27 2053 UTC
Wind: from the SW (220 degrees) at 16 MPH (14 KT):0
Visibility: 10 mile(s):0
Sky conditions: clear
Temperature: 90.0 F (32.2 C)
Heat index: 97.0 F (36.1 C):1
Dew Point: 72.0 F (22.2 C)
Relative Humidity: 55%
Pressure (altimeter): 29.99 in. Hg (1015 hPa)
Pressure tendency: 0.06 inches (2.0 hPa) lower than three hours ago
ob: KMIW 272053Z AUTO 22014KT 10SM CLR 32/22 A2999 RMK AO2 SLP147 T03220222 58020
cycle: 21

Station Type Date Time Source
KMIW TAF UTC NOAA

Error!

Example: see airport list